createdAt,value
2019-04-27T00:02:01.817Z,66.60
2019-04-27T00:05:32.013Z,66.00
2019-04-27T00:08:39.048Z,66.00
2019-04-27T00:11:45.531Z,66.50
2019-04-27T00:14:48.273Z,66.30
2019-04-27T00:17:58.203Z,65.90
2019-04-27T00:21:17.908Z,65.60
2019-04-27T00:24:19.989Z,65.80
2019-04-27T00:27:21.268Z,67.40
2019-04-27T00:30:23.526Z,67.20
2019-04-27T00:33:25.014Z,67.10
2019-04-27T00:36:35.244Z,67.90
2019-04-27T00:39:44.515Z,68.00
2019-04-27T00:42:45.901Z,68.10
2019-04-27T00:45:47.485Z,68.10
2019-04-27T00:48:49.191Z,68.10
2019-04-27T00:51:50.490Z,68.60
2019-04-27T00:54:51.766Z,69.10
2019-04-27T00:58:10.196Z,69.60
2019-04-27T01:01:14.992Z,69.60
2019-04-27T01:04:18.459Z,69.80
2019-04-27T01:07:20.519Z,69.60
2019-04-27T01:10:23.347Z,70.00
2019-04-27T01:13:24.825Z,70.30
2019-04-27T01:16:26.559Z,70.40
2019-04-27T01:19:28.957Z,70.30
2019-04-27T01:22:30.363Z,70.20
2019-04-27T01:25:38.823Z,70.20
2019-04-27T01:28:42.040Z,70.60
2019-04-27T01:31:43.814Z,70.40
2019-04-27T01:34:45.198Z,71.20
2019-04-27T01:37:48.665Z,71.80
2019-04-27T01:40:49.971Z,72.70
2019-04-27T01:43:51.279Z,72.70
2019-04-27T01:46:52.876Z,72.60
2019-04-27T01:49:54.166Z,72.60
2019-04-27T01:52:55.649Z,72.60
2019-04-27T01:55:59.048Z,72.50
2019-04-27T01:59:00.357Z,73.00
2019-04-27T02:02:03.959Z,72.90
2019-04-27T02:05:08.970Z,73.10
2019-04-27T02:08:10.613Z,73.60
2019-04-27T02:11:12.133Z,74.20
2019-04-27T02:14:13.403Z,75.70
2019-04-27T02:17:15.150Z,76.30
2019-04-27T02:20:16.558Z,76.20
2019-04-27T02:23:19.234Z,76.90
2019-04-27T02:26:21.594Z,77.80
2019-04-27T02:29:34.463Z,77.70
2019-04-27T02:32:39.734Z,78.50
2019-04-27T02:35:42.028Z,78.50
2019-04-27T02:38:43.593Z,78.30
2019-04-27T02:41:44.890Z,78.40
2019-04-27T02:44:49.380Z,78.00
2019-04-27T02:47:51.869Z,77.50
2019-04-27T02:50:59.913Z,77.40
2019-04-27T02:54:01.707Z,77.20
2019-04-27T02:57:03.417Z,77.70
2019-04-27T03:00:05.189Z,77.50
2019-04-27T03:03:10.267Z,78.20
2019-04-27T03:06:11.614Z,78.20
2019-04-27T03:09:32.873Z,78.50
2019-04-27T03:12:36.062Z,77.30
2019-04-27T03:15:45.193Z,77.30
2019-04-27T03:19:14.315Z,77.00
2019-04-27T03:22:29.586Z,77.10
2019-04-27T03:25:32.957Z,76.80
2019-04-27T03:28:34.254Z,77.50
2019-04-27T03:31:36.899Z,77.80
2019-04-27T03:34:41.782Z,78.30
2019-04-27T03:37:42.066Z,78.70
2019-04-27T03:40:43.374Z,78.60
2019-04-27T03:43:45.831Z,78.60
2019-04-27T03:46:49.483Z,79.00
2019-04-27T03:49:50.916Z,78.80
2019-04-27T03:52:54.347Z,79.30
2019-04-27T03:55:59.962Z,79.50
2019-04-27T03:59:03.044Z,79.20
2019-04-27T04:02:05.105Z,80.40
2019-04-27T04:05:09.642Z,80.20
2019-04-27T04:08:10.942Z,79.20
2019-04-27T04:11:14.287Z,79.20
2019-04-27T04:14:20.105Z,78.80
2019-04-27T04:20:46.407Z,78.50
2019-04-27T04:23:49.477Z,78.60
2019-04-27T04:26:53.114Z,79.10
2019-04-27T04:29:54.389Z,79.00
2019-04-27T04:32:56.321Z,78.50
2019-04-27T04:35:59.666Z,77.40
2019-04-27T04:39:00.913Z,76.90
2019-04-27T04:42:04.069Z,75.40
2019-04-27T04:45:07.272Z,75.60
2019-04-27T04:48:10.462Z,74.50
2019-04-27T04:51:12.252Z,73.80
2019-04-27T04:54:13.539Z,73.50
2019-04-27T04:57:15.519Z,72.40
2019-04-27T05:00:19.751Z,72.30
2019-04-27T05:03:21.825Z,71.50
2019-04-27T05:06:25.509Z,71.50
2019-04-27T05:09:26.630Z,71.50
2019-04-27T05:12:28.792Z,70.80
2019-04-27T05:15:30.562Z,70.20
2019-04-27T05:18:31.873Z,70.00
2019-04-27T05:21:34.311Z,68.90
2019-04-27T05:24:35.602Z,68.50
2019-04-27T05:27:38.957Z,67.60
2019-04-27T05:30:40.466Z,67.00
2019-04-27T05:33:41.946Z,68.00
2019-04-27T05:36:48.758Z,67.00
2019-04-27T05:39:46.518Z,67.10
2019-04-27T05:42:48.823Z,66.00
2019-04-27T05:46:29.750Z,66.10
2019-04-27T05:49:41.164Z,64.80
2019-04-27T05:52:41.001Z,64.50
2019-04-27T05:55:42.297Z,63.70
2019-04-27T05:58:43.799Z,64.10
2019-04-27T06:01:45.082Z,64.20
2019-04-27T06:04:46.585Z,63.70
2019-04-27T06:07:48.761Z,63.70
2019-04-27T06:10:50.441Z,63.30
2019-04-27T06:13:51.745Z,63.40
2019-04-27T06:16:53.239Z,63.80
2019-04-27T06:19:55.038Z,62.00
2019-04-27T06:22:58.896Z,63.20
2019-04-27T06:26:01.748Z,62.60
2019-04-27T06:29:03.592Z,61.30
2019-04-27T06:32:04.865Z,62.90
2019-04-27T06:35:06.385Z,61.30
2019-04-27T06:38:07.746Z,60.50
2019-04-27T06:41:09.990Z,61.10
2019-04-27T06:44:11.573Z,60.40
2019-04-27T06:47:13.093Z,59.90
2019-04-27T06:50:14.505Z,57.90
2019-04-27T06:53:15.965Z,57.50
2019-04-27T06:56:18.530Z,57.20
2019-04-27T06:59:19.953Z,57.50
2019-04-27T07:02:22.283Z,55.50
2019-04-27T07:05:23.771Z,57.70
2019-04-27T07:08:25.353Z,55.10
2019-04-27T07:11:26.630Z,55.70
2019-04-27T07:14:29.472Z,53.80
2019-04-27T07:17:31.031Z,54.50
2019-04-27T07:20:32.402Z,54.10
2019-04-27T07:23:36.210Z,54.60
2019-04-27T07:26:39.082Z,55.30
2019-04-27T07:29:44.629Z,55.00
2019-04-27T07:32:44.918Z,54.50
2019-04-27T07:35:46.201Z,54.30
2019-04-27T07:38:48.584Z,54.20
2019-04-27T07:41:49.958Z,54.20
2019-04-27T07:44:53.235Z,53.80
2019-04-27T07:47:54.790Z,54.60
2019-04-27T07:50:56.487Z,52.60
2019-04-27T07:53:58.944Z,53.90
2019-04-27T07:57:00.468Z,53.70
2019-04-27T08:00:04.104Z,53.90
2019-04-27T08:03:05.362Z,52.50
2019-04-27T08:06:08.497Z,52.00
2019-04-27T08:09:10.086Z,51.40
2019-04-27T08:12:11.567Z,53.40
2019-04-27T08:15:12.878Z,51.90
2019-04-27T08:18:14.753Z,50.70
2019-04-27T08:21:16.350Z,51.70
2019-04-27T08:24:19.412Z,51.30
2019-04-27T08:27:34.943Z,51.00
2019-04-27T08:30:39.360Z,50.90
2019-04-27T08:33:41.154Z,51.70
2019-04-27T08:36:42.487Z,52.30
2019-04-27T08:39:43.991Z,49.00
2019-04-27T08:42:45.330Z,50.00
2019-04-27T08:45:48.345Z,50.60
2019-04-27T08:48:50.133Z,51.30
2019-04-27T08:51:58.827Z,53.40
2019-04-27T08:54:54.960Z,53.00
2019-04-27T08:57:58.558Z,53.80
2019-04-27T09:01:00.022Z,53.50
2019-04-27T09:04:01.572Z,53.30
2019-04-27T09:07:21.673Z,53.90
2019-04-27T09:10:28.901Z,53.80
2019-04-27T09:13:32.486Z,54.80
2019-04-27T09:16:35.794Z,53.40
2019-04-27T09:19:59.152Z,53.60
2019-04-27T09:22:59.407Z,53.40
2019-04-27T09:26:00.691Z,53.10
2019-04-27T09:29:01.994Z,53.30
2019-04-27T09:32:03.867Z,54.40
2019-04-27T09:35:05.925Z,52.50
2019-04-27T09:38:08.349Z,52.30
2019-04-27T09:41:10.361Z,52.30
2019-04-27T09:44:11.703Z,52.80
2019-04-27T09:47:13.366Z,52.00
2019-04-27T09:50:16.202Z,52.90
2019-04-27T09:53:18.145Z,52.90
2019-04-27T09:56:20.240Z,54.80
2019-04-27T09:59:21.828Z,53.60
2019-04-27T10:02:23.165Z,53.20
2019-04-27T10:05:26.282Z,52.60
2019-04-27T10:08:28.133Z,52.80
2019-04-27T10:11:30.180Z,52.30
2019-04-27T10:14:33.526Z,53.00
2019-04-27T10:17:35.192Z,52.70
2019-04-27T10:20:40.545Z,52.10
2019-04-27T10:23:41.318Z,51.70
2019-04-27T10:26:43.865Z,51.30
2019-04-27T10:29:46.734Z,49.90
2019-04-27T10:32:48.975Z,49.90
2019-04-27T10:35:50.365Z,49.20
2019-04-27T10:38:51.663Z,49.70
2019-04-27T10:41:53.149Z,49.80
2019-04-27T10:44:56.040Z,49.10
2019-04-27T10:47:57.557Z,49.20
2019-04-27T10:50:59.323Z,48.60
2019-04-27T10:54:01.639Z,49.10
2019-04-27T10:57:05.934Z,49.40
2019-04-27T11:00:08.776Z,51.20
2019-04-27T11:03:11.192Z,51.50
2019-04-27T11:06:36.715Z,50.70
2019-04-27T11:09:38.700Z,50.30
2019-04-27T11:12:40.678Z,50.70
2019-04-27T11:15:42.313Z,51.10
2019-04-27T11:18:44.352Z,50.50
2019-04-27T11:21:45.640Z,48.20
2019-04-27T11:24:47.905Z,48.30
2019-04-27T11:27:49.690Z,46.50
2019-04-27T11:30:51.094Z,46.90
2019-04-27T11:33:53.617Z,47.30
2019-04-27T11:36:57.906Z,46.40
2019-04-27T11:39:59.792Z,46.60
2019-04-27T11:43:01.194Z,48.40
2019-04-27T11:46:02.514Z,48.10
2019-04-27T11:49:04.119Z,49.40
2019-04-27T11:52:05.870Z,49.40
2019-04-27T11:55:07.571Z,49.10
2019-04-27T11:58:08.862Z,50.10
2019-04-27T12:01:10.514Z,50.00
2019-04-27T12:04:11.870Z,50.90
2019-04-27T12:07:13.315Z,52.10
2019-04-27T12:10:15.841Z,52.50
2019-04-27T12:13:17.348Z,51.30
2019-04-27T12:16:18.699Z,50.70
2019-04-27T12:19:20.471Z,49.70
2019-04-27T12:22:22.531Z,50.40
2019-04-27T12:25:23.992Z,53.10
2019-04-27T12:28:27.527Z,52.30
2019-04-27T12:31:30.735Z,51.20
2019-04-27T12:34:36.107Z,48.60
2019-04-27T12:37:38.785Z,44.20
2019-04-27T12:40:40.276Z,43.20
2019-04-27T12:43:42.118Z,45.00
2019-04-27T12:46:43.690Z,45.00
2019-04-27T12:49:45.370Z,44.70
2019-04-27T12:52:58.084Z,45.50
2019-04-27T12:56:16.739Z,45.60
2019-04-27T12:59:37.198Z,45.40
2019-04-27T13:02:38.617Z,44.90
2019-04-27T13:05:40.529Z,44.60
2019-04-27T13:08:42.547Z,45.60
2019-04-27T13:11:45.812Z,44.50
2019-04-27T13:14:47.999Z,44.20
2019-04-27T13:17:49.385Z,44.60
2019-04-27T13:20:50.827Z,45.60
2019-04-27T13:24:03.629Z,47.30
2019-04-27T13:26:57.298Z,49.90
2019-04-27T13:29:59.544Z,51.20
2019-04-27T13:33:00.979Z,52.10
2019-04-27T13:36:02.758Z,50.60
2019-04-27T13:39:06.325Z,50.70
2019-04-27T13:42:07.854Z,49.80
2019-04-27T13:45:11.474Z,48.30
2019-04-27T13:48:17.762Z,48.90
2019-04-27T13:51:36.556Z,49.80
2019-04-27T13:54:38.338Z,47.10
2019-04-27T13:57:50.035Z,44.00
2019-04-27T14:00:44.058Z,44.60
2019-04-27T14:03:45.762Z,44.70
2019-04-27T14:06:47.054Z,45.10
2019-04-27T14:09:50.496Z,44.30
2019-04-27T14:12:51.921Z,44.30
2019-04-27T14:15:53.964Z,44.00
2019-04-27T14:18:55.492Z,44.20
2019-04-27T14:21:56.978Z,44.80
2019-04-27T14:24:58.673Z,44.60
2019-04-27T14:28:00.452Z,44.70
2019-04-27T14:31:01.722Z,45.30
2019-04-27T14:34:06.635Z,45.50
2019-04-27T14:37:08.640Z,45.70
2019-04-27T14:40:10.926Z,47.10
2019-04-27T14:43:12.223Z,47.50
2019-04-27T14:46:14.010Z,47.00
2019-04-27T14:49:15.463Z,46.90
2019-04-27T14:52:18.756Z,46.80
2019-04-27T14:55:20.281Z,47.90
2019-04-27T14:58:21.784Z,49.30
2019-04-27T15:01:25.258Z,48.90
2019-04-27T15:04:28.870Z,51.00
2019-04-27T15:07:30.126Z,52.40
2019-04-27T15:10:35.879Z,51.50
2019-04-27T15:13:37.776Z,48.80
2019-04-27T15:16:42.669Z,48.60
2019-04-27T15:19:52.769Z,49.90
2019-04-27T15:22:56.879Z,50.60
2019-04-27T15:25:56.710Z,51.80
2019-04-27T15:28:59.969Z,52.70
2019-04-27T15:32:04.247Z,53.00
2019-04-27T15:35:10.587Z,54.30
2019-04-27T15:38:14.326Z,55.30
2019-04-27T15:41:32.583Z,57.10
2019-04-27T15:44:41.114Z,55.80
2019-04-27T15:47:42.452Z,55.40
2019-04-27T15:50:43.947Z,55.60
2019-04-27T15:53:50.807Z,57.80
2019-04-27T15:56:49.287Z,60.40
2019-04-27T15:59:50.573Z,60.90
2019-04-27T16:02:52.734Z,61.70
2019-04-27T16:05:54.322Z,62.00
2019-04-27T16:08:55.642Z,64.10
2019-04-27T16:12:07.112Z,66.00
2019-04-27T16:15:01.930Z,66.50
2019-04-27T16:18:03.210Z,67.50
2019-04-27T16:21:07.164Z,68.50
2019-04-27T16:24:08.494Z,69.60
2019-04-27T16:27:11.076Z,71.10
2019-04-27T16:30:17.927Z,71.00
2019-04-27T16:33:20.258Z,71.60
2019-04-27T16:36:19.823Z,70.90
2019-04-27T16:39:21.363Z,71.60
2019-04-27T16:42:22.962Z,72.00
2019-04-27T16:45:27.065Z,72.80
2019-04-27T16:48:34.359Z,73.20
2019-04-27T16:51:36.679Z,73.50
2019-04-27T16:54:35.535Z,74.30
2019-04-27T16:57:39.976Z,74.20
2019-04-27T17:00:40.850Z,74.10
2019-04-27T17:03:42.721Z,74.90
2019-04-27T17:06:45.979Z,75.40
2019-04-27T17:09:49.421Z,76.30
2019-04-27T17:12:51.794Z,76.50
2019-04-27T17:16:13.389Z,76.50
2019-04-27T17:19:16.698Z,76.40
2019-04-27T17:22:20.221Z,77.50
2019-04-27T17:25:23.468Z,78.20
2019-04-27T17:28:27.166Z,78.70
2019-04-27T17:31:30.533Z,79.10
2019-04-27T17:34:31.821Z,79.00
2019-04-27T17:37:33.913Z,79.80
2019-04-27T17:40:36.037Z,79.60
2019-04-27T17:43:41.285Z,80.00
2019-04-27T17:46:42.755Z,80.50
2019-04-27T17:49:44.460Z,80.40
2019-04-27T17:52:48.485Z,80.60
2019-04-27T17:55:49.149Z,80.70
2019-04-27T17:58:52.327Z,81.20
2019-04-27T18:02:00.963Z,81.20
2019-04-27T18:04:58.864Z,81.30
2019-04-27T18:08:00.862Z,81.50
2019-04-27T18:11:03.250Z,81.80
2019-04-27T18:14:05.869Z,81.10
2019-04-27T18:17:10.383Z,81.30
2019-04-27T18:20:26.689Z,81.70
2019-04-27T18:23:36.610Z,81.70
2019-04-27T18:26:49.100Z,81.10
2019-04-27T18:29:43.806Z,81.80
2019-04-27T18:32:45.631Z,81.60
2019-04-27T18:35:49.117Z,81.80
2019-04-27T18:38:52.120Z,81.90
2019-04-27T18:41:54.356Z,82.60
2019-04-27T18:44:56.355Z,82.70
2019-04-27T18:48:00.305Z,82.70
2019-04-27T18:51:03.972Z,82.80
2019-04-27T18:54:05.598Z,82.80
2019-04-27T18:57:10.914Z,82.80
2019-04-27T19:00:12.559Z,83.20
2019-04-27T19:03:13.966Z,83.20
2019-04-27T19:06:15.451Z,83.30
2019-04-27T19:09:18.650Z,83.40
2019-04-27T19:12:20.654Z,83.60
2019-04-27T19:15:22.573Z,83.80
2019-04-27T19:18:24.427Z,83.90
2019-04-27T19:21:26.494Z,83.90
2019-04-27T19:24:28.284Z,84.00
2019-04-27T19:27:50.303Z,83.50
2019-04-27T19:30:53.740Z,83.80
2019-04-27T19:33:56.566Z,84.40
2019-04-27T19:36:59.647Z,84.60
2019-04-27T19:40:01.042Z,85.10
2019-04-27T19:43:02.538Z,85.40
2019-04-27T19:46:04.017Z,85.40
2019-04-27T19:49:05.419Z,85.70
2019-04-27T19:52:08.545Z,85.90
2019-04-27T19:55:10.718Z,86.30
2019-04-27T19:58:13.490Z,86.50
2019-04-27T20:01:19.878Z,86.50
2019-04-27T20:04:30.801Z,86.90
2019-04-27T20:07:32.384Z,86.60
2019-04-27T20:10:34.367Z,86.50
2019-04-27T20:13:35.983Z,86.20
2019-04-27T20:16:37.969Z,86.00
2019-04-27T20:19:39.530Z,86.00
2019-04-27T20:22:42.030Z,86.50
2019-04-27T20:25:43.461Z,86.60
2019-04-27T20:28:45.271Z,86.30
2019-04-27T20:31:47.537Z,86.30
2019-04-27T20:34:50.830Z,86.40
2019-04-27T20:37:52.555Z,86.50
2019-04-27T20:40:54.293Z,86.30
2019-04-27T20:43:55.744Z,86.50
2019-04-27T20:46:57.587Z,86.50
2019-04-27T20:49:59.184Z,86.20
2019-04-27T20:53:02.483Z,86.00
2019-04-27T20:56:03.877Z,85.80
2019-04-27T20:59:05.508Z,86.50
2019-04-27T21:02:27.066Z,86.20
2019-04-27T21:05:47.262Z,86.20
2019-04-27T21:08:48.802Z,86.20
2019-04-27T21:11:50.315Z,86.40
2019-04-27T21:14:52.013Z,86.60
2019-04-27T21:17:53.685Z,86.80
2019-04-27T21:20:55.169Z,86.60
2019-04-27T21:23:56.798Z,86.70
2019-04-27T21:26:58.077Z,86.80
2019-04-27T21:29:59.577Z,86.70
2019-04-27T21:33:01.217Z,86.60
2019-04-27T21:36:03.202Z,86.80
2019-04-27T21:39:05.762Z,87.10
2019-04-27T21:42:07.165Z,87.20
2019-04-27T21:45:08.449Z,87.40
2019-04-27T21:48:10.966Z,87.70
2019-04-27T21:51:12.366Z,87.70
2019-04-27T21:54:15.598Z,88.10
2019-04-27T21:57:17.061Z,88.20
2019-04-27T22:00:42.727Z,88.50
2019-04-27T22:03:45.243Z,88.60
2019-04-27T22:06:46.819Z,88.70
2019-04-27T22:09:48.117Z,89.10
2019-04-27T22:12:49.447Z,89.10
2019-04-27T22:15:50.980Z,89.00
2019-04-27T22:18:52.489Z,89.30
2019-04-27T22:21:54.660Z,89.50
2019-04-27T22:24:57.855Z,89.20
2019-04-27T22:28:01.457Z,89.20
2019-04-27T22:31:02.886Z,89.30
2019-04-27T22:34:04.374Z,89.20
2019-04-27T22:37:06.178Z,89.40
2019-04-27T22:40:21.542Z,89.00
2019-04-27T22:43:31.542Z,89.30
2019-04-27T22:46:35.868Z,89.20
2019-04-27T22:49:37.142Z,89.60
2019-04-27T22:52:38.789Z,89.40
2019-04-27T22:55:58.551Z,89.10
2019-04-27T22:59:04.075Z,89.00
2019-04-27T23:02:19.042Z,89.40
2019-04-27T23:05:21.197Z,89.30
2019-04-27T23:08:22.697Z,89.50
2019-04-27T23:11:24.200Z,89.30
2019-04-27T23:14:25.505Z,89.30
2019-04-27T23:17:46.898Z,89.50
2019-04-27T23:20:48.679Z,89.60
2019-04-27T23:23:51.740Z,89.60
2019-04-27T23:26:53.355Z,90.10
2019-04-27T23:29:54.652Z,90.10
2019-04-27T23:32:56.293Z,90.00
2019-04-27T23:35:57.597Z,89.90
2019-04-27T23:39:00.891Z,89.60
2019-04-27T23:42:06.648Z,89.90
2019-04-27T23:45:06.710Z,90.00
2019-04-27T23:48:08.099Z,90.20
2019-04-27T23:51:14.152Z,90.10
2019-04-27T23:54:15.502Z,90.10
2019-04-27T23:57:16.976Z,90.40
